createdAt,value
2019-01-10T00:01:42.755Z,3.20
2019-01-10T00:03:44.470Z,3.20
2019-01-10T00:05:46.456Z,3.20
2019-01-10T00:07:48.472Z,3.10
2019-01-10T00:09:50.329Z,3.10
2019-01-10T00:11:52.163Z,3.10
2019-01-10T00:13:53.990Z,3.10
2019-01-10T00:15:55.729Z,3.10
2019-01-10T00:17:57.613Z,3.00
2019-01-10T00:19:59.450Z,3.00
2019-01-10T00:22:01.187Z,3.00
2019-01-10T00:24:03.709Z,3.00
2019-01-10T00:26:05.460Z,3.10
2019-01-10T00:28:07.286Z,3.10
2019-01-10T00:30:16.646Z,3.10
2019-01-10T00:32:18.513Z,3.00
2019-01-10T00:34:20.362Z,3.00
2019-01-10T00:36:22.277Z,3.10
2019-01-10T00:38:24.393Z,3.10
2019-01-10T00:40:26.213Z,3.10
2019-01-10T00:42:28.036Z,3.10
2019-01-10T00:44:29.765Z,3.00
2019-01-10T00:46:31.517Z,3.10
2019-01-10T00:48:33.228Z,3.10
2019-01-10T00:50:35.234Z,3.10
2019-01-10T00:52:37.078Z,3.00
2019-01-10T00:54:38.786Z,3.00
2019-01-10T00:56:40.506Z,3.00
2019-01-10T00:58:42.249Z,3.00
2019-01-10T01:00:43.963Z,3.00
2019-01-10T01:02:45.861Z,3.00
2019-01-10T01:04:47.684Z,3.10
2019-01-10T01:06:49.533Z,3.10
2019-01-10T01:08:51.352Z,3.10
2019-01-10T01:10:53.184Z,3.20
2019-01-10T01:12:58.732Z,3.20
2019-01-10T01:14:59.539Z,3.20
2019-01-10T01:17:01.368Z,3.20
2019-01-10T01:19:03.495Z,3.20
2019-01-10T01:21:05.470Z,3.20
2019-01-10T01:23:07.209Z,3.20
2019-01-10T01:25:09.915Z,3.20
2019-01-10T01:27:11.845Z,3.20
2019-01-10T01:29:13.758Z,3.30
2019-01-10T01:31:15.453Z,3.30
2019-01-10T01:33:17.508Z,3.20
2019-01-10T01:35:21.519Z,3.30
2019-01-10T01:37:23.055Z,3.30
2019-01-10T01:39:25.051Z,3.30
2019-01-10T01:41:26.778Z,3.30
2019-01-10T01:43:28.479Z,3.30
2019-01-10T01:45:30.316Z,3.30
2019-01-10T01:47:32.049Z,3.30
2019-01-10T01:49:34.332Z,3.30
2019-01-10T01:51:36.263Z,3.40
2019-01-10T01:53:38.072Z,3.40
2019-01-10T01:55:40.390Z,3.40
2019-01-10T01:57:42.093Z,3.40
2019-01-10T01:59:43.913Z,3.50
2019-01-10T02:01:45.728Z,3.50
2019-01-10T02:03:47.433Z,3.50
2019-01-10T02:05:49.560Z,3.50
2019-01-10T02:07:51.492Z,3.50
2019-01-10T02:09:53.359Z,3.50
2019-01-10T02:11:55.211Z,3.50
2019-01-10T02:13:56.905Z,3.50
2019-01-10T02:15:58.651Z,3.50
2019-01-10T02:18:00.465Z,3.60
2019-01-10T02:20:02.487Z,3.60
2019-01-10T02:22:04.802Z,3.60
2019-01-10T02:24:06.998Z,3.50
2019-01-10T02:26:08.894Z,3.50
2019-01-10T02:28:10.711Z,3.40
2019-01-10T02:30:15.876Z,3.40
2019-01-10T02:32:17.587Z,3.40
2019-01-10T02:34:19.401Z,3.40
2019-01-10T02:36:21.216Z,3.40
2019-01-10T02:38:23.033Z,3.40
2019-01-10T02:40:25.003Z,3.40
2019-01-10T02:42:26.821Z,3.40
2019-01-10T02:44:28.549Z,3.40
2019-01-10T02:46:30.283Z,3.30
2019-01-10T02:48:32.345Z,3.30
2019-01-10T02:50:34.453Z,3.40
2019-01-10T02:52:36.448Z,3.40
2019-01-10T02:54:38.273Z,3.40
2019-01-10T02:56:40.019Z,3.40
2019-01-10T02:58:41.844Z,3.40
2019-01-10T03:00:43.662Z,3.30
2019-01-10T03:02:45.771Z,3.30
2019-01-10T03:04:47.581Z,3.30
2019-01-10T03:06:49.385Z,3.30
2019-01-10T03:08:51.229Z,3.40
2019-01-10T03:10:52.941Z,3.40
2019-01-10T03:12:54.778Z,3.40
2019-01-10T03:14:56.601Z,3.40
2019-01-10T03:16:58.521Z,3.40
2019-01-10T03:19:00.420Z,3.40
2019-01-10T03:21:02.253Z,3.30
2019-01-10T03:23:03.981Z,3.30
2019-01-10T03:25:06.162Z,3.30
2019-01-10T03:27:07.942Z,3.30
2019-01-10T03:29:11.587Z,3.30
2019-01-10T03:31:13.378Z,3.30
2019-01-10T03:33:15.220Z,3.30
2019-01-10T03:35:17.401Z,3.30
2019-01-10T03:37:19.120Z,3.30
2019-01-10T03:39:20.857Z,3.30
2019-01-10T03:41:22.569Z,3.30
2019-01-10T03:43:24.293Z,3.30
2019-01-10T03:45:26.009Z,3.30
2019-01-10T03:47:27.743Z,3.30
2019-01-10T03:49:29.566Z,3.40
2019-01-10T03:51:31.301Z,3.40
2019-01-10T03:53:33.057Z,3.40
2019-01-10T03:55:34.873Z,3.40
2019-01-10T03:57:36.706Z,3.40
2019-01-10T03:59:38.414Z,3.50
2019-01-10T04:01:40.157Z,3.50
2019-01-10T04:03:41.996Z,3.50
2019-01-10T04:05:43.806Z,3.50
2019-01-10T04:07:46.153Z,3.50
2019-01-10T04:09:48.061Z,3.40
2019-01-10T04:11:49.914Z,3.50
2019-01-10T04:13:57.300Z,3.60
2019-01-10T04:15:55.332Z,3.60
2019-01-10T04:17:57.268Z,3.40
2019-01-10T04:19:59.230Z,3.40
2019-01-10T04:22:00.937Z,3.40
2019-01-10T04:24:03.201Z,3.40
2019-01-10T04:26:05.113Z,3.40
2019-01-10T04:28:06.825Z,3.40
2019-01-10T04:30:14.413Z,3.50
2019-01-10T04:32:16.147Z,3.70
2019-01-10T04:34:17.968Z,3.80
2019-01-10T04:36:19.781Z,3.90
2019-01-10T04:38:21.493Z,3.80
2019-01-10T04:40:23.189Z,3.70
2019-01-10T04:42:25.020Z,3.60
2019-01-10T04:44:26.728Z,3.50
2019-01-10T04:46:28.429Z,3.50
2019-01-10T04:48:30.383Z,3.50
2019-01-10T04:50:32.092Z,3.40
2019-01-10T04:52:33.820Z,3.30
2019-01-10T04:54:38.331Z,3.30
2019-01-10T04:56:39.308Z,3.30
2019-01-10T04:58:41.033Z,3.40
2019-01-10T05:00:42.761Z,3.40
2019-01-10T05:02:44.652Z,3.30
2019-01-10T05:04:46.390Z,3.30
2019-01-10T05:06:48.143Z,3.30
2019-01-10T05:08:49.962Z,3.30
2019-01-10T05:10:51.660Z,3.30
2019-01-10T05:12:53.516Z,3.30
2019-01-10T05:14:55.221Z,3.30
2019-01-10T05:16:56.943Z,3.30
2019-01-10T05:21:15.990Z,3.30
2019-01-10T05:23:17.717Z,3.30
2019-01-10T05:25:19.436Z,3.30
2019-01-10T05:27:23.505Z,3.40
2019-01-10T05:29:25.235Z,3.40
2019-01-10T05:31:26.941Z,3.40
2019-01-10T05:33:28.712Z,3.40
2019-01-10T05:35:30.429Z,3.40
2019-01-10T05:37:32.133Z,3.30
2019-01-10T05:39:33.966Z,3.40
2019-01-10T05:41:35.699Z,3.40
2019-01-10T05:43:37.505Z,3.40
2019-01-10T05:45:39.217Z,3.30
2019-01-10T05:47:42.989Z,3.40
2019-01-10T05:49:44.633Z,3.50
2019-01-10T05:51:46.423Z,3.50
2019-01-10T05:53:48.121Z,3.50
2019-01-10T05:55:49.854Z,3.60
2019-01-10T05:57:51.605Z,3.60
2019-01-10T05:59:53.337Z,3.60
2019-01-10T06:01:55.043Z,3.50
2019-01-10T06:03:56.805Z,3.50
2019-01-10T06:05:58.487Z,3.50
2019-01-10T06:08:00.192Z,3.40
2019-01-10T06:10:02.673Z,3.50
2019-01-10T06:12:04.716Z,3.50
2019-01-10T06:14:06.428Z,3.50
2019-01-10T06:16:08.161Z,3.50
2019-01-10T06:18:09.886Z,3.40
2019-01-10T06:20:13.284Z,3.30
2019-01-10T06:22:14.988Z,3.10
2019-01-10T06:24:16.818Z,3.20
2019-01-10T06:26:18.636Z,3.20
2019-01-10T06:28:20.347Z,3.10
2019-01-10T06:30:22.993Z,3.10
2019-01-10T06:32:24.696Z,3.20
2019-01-10T06:34:26.432Z,3.20
2019-01-10T06:36:28.199Z,3.20
2019-01-10T06:38:30.004Z,3.20
2019-01-10T06:40:31.869Z,3.20
2019-01-10T06:42:33.608Z,3.20
2019-01-10T06:44:35.305Z,3.20
2019-01-10T06:46:37.006Z,3.20
2019-01-10T06:48:38.737Z,3.20
2019-01-10T06:50:40.441Z,3.20
2019-01-10T06:52:42.517Z,3.20
2019-01-10T06:54:44.249Z,3.20
2019-01-10T06:56:45.997Z,3.10
2019-01-10T06:58:47.709Z,3.00
2019-01-10T07:00:49.407Z,3.10
2019-01-10T07:02:51.375Z,3.10
2019-01-10T07:04:56.064Z,3.10
2019-01-10T07:07:03.782Z,3.00
2019-01-10T07:09:07.151Z,3.00
2019-01-10T07:11:08.875Z,2.90
2019-01-10T07:13:10.608Z,2.80
2019-01-10T07:15:12.496Z,2.90
2019-01-10T07:17:16.039Z,2.90
2019-01-10T07:19:46.011Z,2.90
2019-01-10T07:21:56.424Z,2.80
2019-01-10T07:23:58.221Z,2.80
2019-01-10T07:25:59.953Z,2.80
2019-01-10T07:28:22.548Z,2.70
2019-01-10T07:30:35.276Z,2.60
2019-01-10T07:32:29.801Z,2.50
2019-01-10T07:34:31.646Z,2.40
2019-01-10T07:36:33.529Z,2.50
2019-01-10T07:38:35.285Z,2.40
2019-01-10T07:40:38.125Z,2.40
2019-01-10T07:42:39.810Z,2.40
2019-01-10T07:44:41.616Z,2.40
2019-01-10T07:46:45.306Z,2.50
2019-01-10T07:48:49.081Z,2.40
2019-01-10T07:50:51.065Z,2.50
2019-01-10T07:52:53.012Z,2.50
2019-01-10T07:54:54.713Z,2.40
2019-01-10T07:56:56.790Z,2.50
2019-01-10T07:58:58.629Z,2.40
2019-01-10T08:01:00.998Z,2.50
2019-01-10T08:03:03.510Z,2.40
2019-01-10T08:05:05.432Z,2.50
2019-01-10T08:07:07.232Z,2.50
2019-01-10T08:09:09.145Z,2.50
2019-01-10T08:11:10.912Z,2.50
2019-01-10T08:13:12.692Z,2.50
2019-01-10T08:15:16.683Z,2.50
2019-01-10T08:17:18.624Z,2.50
2019-01-10T08:19:20.321Z,2.60
2019-01-10T08:21:22.024Z,2.50
2019-01-10T08:23:23.944Z,2.50
2019-01-10T08:25:25.661Z,2.50
2019-01-10T08:27:30.819Z,2.60
2019-01-10T08:29:33.589Z,2.60
2019-01-10T08:31:35.541Z,2.60
2019-01-10T08:33:37.245Z,2.50
2019-01-10T08:35:38.976Z,2.50
2019-01-10T08:37:40.810Z,2.50
2019-01-10T08:39:42.517Z,2.50
2019-01-10T08:41:44.271Z,2.50
2019-01-10T08:43:45.976Z,2.60
2019-01-10T08:45:47.664Z,2.70
2019-01-10T08:47:49.612Z,2.70
2019-01-10T08:49:51.365Z,2.80
2019-01-10T08:51:53.065Z,3.00
2019-01-10T08:53:55.025Z,3.20
2019-01-10T08:55:56.821Z,3.40
2019-01-10T08:57:58.521Z,3.60
2019-01-10T09:00:00.245Z,3.90
2019-01-10T09:02:02.101Z,3.90
2019-01-10T09:04:03.892Z,3.90
2019-01-10T09:06:08.278Z,4.00
2019-01-10T09:08:10.107Z,3.90
2019-01-10T09:10:15.644Z,4.00
2019-01-10T09:12:19.122Z,4.10
2019-01-10T09:14:21.121Z,4.10
2019-01-10T09:16:22.844Z,4.00
2019-01-10T09:18:24.820Z,4.00
2019-01-10T09:20:26.695Z,3.90
2019-01-10T09:22:28.522Z,3.90
2019-01-10T09:24:30.637Z,3.90
2019-01-10T09:26:37.598Z,4.00
2019-01-10T09:28:36.304Z,4.00
2019-01-10T09:30:38.740Z,4.00
2019-01-10T09:32:40.699Z,4.20
2019-01-10T09:34:42.442Z,4.20
2019-01-10T09:36:44.143Z,4.40
2019-01-10T09:38:45.849Z,4.40
2019-01-10T09:40:47.857Z,4.40
2019-01-10T09:42:49.906Z,4.50
2019-01-10T09:44:51.700Z,4.30
2019-01-10T09:46:53.416Z,4.30
2019-01-10T09:48:55.118Z,4.50
2019-01-10T09:50:56.813Z,4.60
2019-01-10T09:52:58.643Z,4.70
2019-01-10T09:55:00.548Z,4.60
2019-01-10T09:57:02.365Z,4.50
2019-01-10T09:59:04.291Z,4.50
2019-01-10T10:01:06.194Z,4.60
2019-01-10T10:03:07.997Z,4.70
2019-01-10T10:05:09.901Z,4.70
2019-01-10T10:07:11.634Z,4.60
2019-01-10T10:09:13.593Z,4.50
2019-01-10T10:11:15.421Z,4.50
2019-01-10T10:13:17.317Z,4.60
2019-01-10T10:15:19.857Z,4.50
2019-01-10T10:17:21.605Z,4.40
2019-01-10T10:19:23.394Z,4.40
2019-01-10T10:21:25.196Z,4.40
2019-01-10T10:23:27.211Z,4.50
2019-01-10T10:25:29.033Z,4.60
2019-01-10T10:27:30.724Z,4.80
2019-01-10T10:29:32.433Z,4.90
2019-01-10T10:31:34.511Z,5.10
2019-01-10T10:33:38.468Z,5.20
2019-01-10T10:35:40.504Z,5.50
2019-01-10T10:37:42.321Z,5.70
2019-01-10T10:39:44.032Z,5.80
2019-01-10T10:41:45.955Z,5.70
2019-01-10T10:43:47.853Z,5.70
2019-01-10T10:45:49.594Z,5.60
2019-01-10T10:47:51.501Z,5.50
2019-01-10T10:49:53.307Z,5.30
2019-01-10T10:51:55.037Z,5.30
2019-01-10T10:53:56.739Z,5.20
2019-01-10T10:55:58.793Z,5.10
2019-01-10T10:58:00.713Z,5.10
2019-01-10T11:00:05.924Z,5.00
2019-01-10T11:02:07.922Z,4.90
2019-01-10T11:04:09.843Z,5.00
2019-01-10T11:06:11.808Z,5.00
2019-01-10T11:08:13.557Z,5.10
2019-01-10T11:10:16.584Z,5.10
2019-01-10T11:12:18.288Z,5.20
2019-01-10T11:14:20.210Z,5.30
2019-01-10T11:16:21.921Z,5.40
2019-01-10T11:18:23.842Z,5.30
2019-01-10T11:20:25.585Z,5.20
2019-01-10T11:22:27.309Z,5.10
2019-01-10T11:24:29.021Z,5.10
2019-01-10T11:26:30.858Z,5.00
2019-01-10T11:28:32.677Z,4.90
2019-01-10T11:30:34.606Z,4.90
2019-01-10T11:32:36.357Z,4.90
2019-01-10T11:34:38.061Z,4.70
2019-01-10T11:36:39.766Z,4.80
2019-01-10T11:38:41.485Z,4.70
2019-01-10T11:40:43.297Z,4.90
2019-01-10T11:42:45.229Z,5.00
2019-01-10T11:44:46.973Z,5.10
2019-01-10T11:46:48.689Z,5.10
2019-01-10T11:48:50.397Z,5.30
2019-01-10T11:50:52.363Z,5.40
2019-01-10T11:52:54.082Z,5.50
2019-01-10T11:54:55.910Z,5.60
2019-01-10T11:56:58.094Z,6.00
2019-01-10T11:58:59.781Z,6.10
2019-01-10T12:01:01.589Z,6.00
2019-01-10T12:03:05.385Z,5.90
2019-01-10T12:05:07.353Z,5.80
2019-01-10T12:07:09.079Z,5.60
2019-01-10T12:09:11.166Z,5.40
2019-01-10T12:11:13.177Z,5.20
2019-01-10T12:13:14.998Z,5.20
2019-01-10T12:15:16.933Z,5.20
2019-01-10T12:17:18.750Z,5.30
2019-01-10T12:19:20.554Z,5.20
2019-01-10T12:21:22.571Z,5.30
2019-01-10T12:23:24.382Z,5.20
2019-01-10T12:25:26.114Z,5.20
2019-01-10T12:27:27.953Z,5.20
2019-01-10T12:29:36.169Z,5.20
2019-01-10T12:31:33.376Z,5.10
2019-01-10T12:33:35.258Z,5.00
2019-01-10T12:35:36.961Z,4.80
2019-01-10T12:37:38.869Z,4.70
2019-01-10T12:39:40.876Z,4.60
2019-01-10T12:41:42.790Z,4.60
2019-01-10T12:43:44.701Z,4.70
2019-01-10T12:45:46.515Z,4.70
2019-01-10T12:47:48.434Z,4.80
2019-01-10T12:49:50.239Z,4.80
2019-01-10T12:51:51.950Z,4.90
2019-01-10T12:53:53.685Z,4.80
2019-01-10T12:55:55.393Z,4.90
2019-01-10T12:57:57.225Z,5.00
2019-01-10T12:59:59.155Z,4.90
2019-01-10T13:02:02.256Z,5.00
2019-01-10T13:04:04.285Z,5.00
2019-01-10T13:06:06.153Z,5.00
2019-01-10T13:08:08.081Z,5.00
2019-01-10T13:10:12.467Z,5.00
2019-01-10T13:12:14.172Z,5.00
2019-01-10T13:14:16.013Z,5.10
2019-01-10T13:16:17.988Z,5.20
2019-01-10T13:18:19.706Z,5.20
2019-01-10T13:20:21.769Z,5.20
2019-01-10T13:22:23.489Z,5.20
2019-01-10T13:24:25.298Z,5.00
2019-01-10T13:26:27.043Z,4.90
2019-01-10T13:28:29.203Z,4.90
2019-01-10T13:30:31.009Z,4.70
2019-01-10T13:32:32.724Z,4.60
2019-01-10T13:34:36.239Z,4.60
2019-01-10T13:36:38.256Z,4.60
2019-01-10T13:38:40.067Z,4.60
2019-01-10T13:40:41.902Z,4.50
2019-01-10T13:42:43.859Z,4.50
2019-01-10T13:44:45.693Z,4.50
2019-01-10T13:46:55.417Z,4.50
2019-01-10T13:48:51.658Z,4.40
2019-01-10T13:50:53.769Z,4.40
2019-01-10T13:52:55.770Z,4.30
2019-01-10T13:54:57.669Z,4.30
2019-01-10T13:56:59.377Z,4.30
2019-01-10T13:59:01.204Z,4.30
2019-01-10T14:01:03.253Z,4.30
2019-01-10T14:03:04.977Z,4.20
2019-01-10T14:05:10.575Z,4.10
2019-01-10T14:07:10.637Z,4.00
2019-01-10T14:09:12.540Z,4.00
2019-01-10T14:11:14.350Z,4.10
2019-01-10T14:13:16.084Z,4.10
2019-01-10T14:15:27.436Z,4.20
2019-01-10T14:17:29.451Z,4.20
2019-01-10T14:19:31.256Z,4.10
2019-01-10T14:21:33.057Z,4.10
2019-01-10T14:23:35.032Z,4.00
2019-01-10T14:25:36.907Z,4.00
2019-01-10T14:27:38.717Z,4.00
2019-01-10T14:29:40.513Z,4.00
2019-01-10T14:31:42.345Z,3.90
2019-01-10T14:33:44.269Z,3.90
2019-01-10T14:35:45.977Z,3.90
2019-01-10T14:37:48.460Z,3.90
2019-01-10T14:39:50.145Z,4.00
2019-01-10T14:41:51.957Z,3.90
2019-01-10T14:43:53.713Z,3.90
2019-01-10T14:45:55.897Z,3.90
2019-01-10T14:48:01.828Z,3.70
2019-01-10T14:50:01.435Z,3.70
2019-01-10T14:52:03.667Z,3.70
2019-01-10T14:54:05.469Z,3.70
2019-01-10T14:56:07.305Z,3.70
2019-01-10T14:58:09.201Z,3.60
2019-01-10T15:00:16.730Z,3.60
2019-01-10T15:02:18.449Z,3.50
2019-01-10T15:04:20.153Z,3.50
2019-01-10T15:06:21.845Z,3.60
2019-01-10T15:08:23.557Z,3.60
2019-01-10T15:10:25.277Z,3.60
2019-01-10T15:12:27.109Z,3.70
2019-01-10T15:14:28.811Z,3.70
2019-01-10T15:16:30.613Z,3.60
2019-01-10T15:18:32.324Z,3.50
2019-01-10T15:20:34.228Z,3.40
2019-01-10T15:22:35.929Z,3.30
2019-01-10T15:24:37.653Z,3.20
2019-01-10T15:26:39.365Z,3.20
2019-01-10T15:28:41.177Z,3.30
2019-01-10T15:30:43.317Z,3.30
2019-01-10T15:32:45.113Z,3.20
2019-01-10T15:34:46.938Z,3.20
2019-01-10T15:36:48.683Z,3.20
2019-01-10T15:38:50.390Z,3.20
2019-01-10T15:40:52.194Z,3.20
2019-01-10T15:42:54.183Z,3.20
2019-01-10T15:44:55.898Z,3.20
2019-01-10T15:46:57.607Z,3.20
2019-01-10T15:48:59.542Z,3.10
2019-01-10T15:51:01.309Z,3.10
2019-01-10T15:53:03.236Z,3.10
2019-01-10T15:55:05.421Z,3.10
2019-01-10T15:57:07.175Z,3.00
2019-01-10T15:59:08.998Z,3.00
2019-01-10T16:01:10.729Z,3.00
2019-01-10T16:03:12.680Z,3.00
2019-01-10T16:05:14.478Z,2.90
2019-01-10T16:07:16.186Z,2.90
2019-01-10T16:09:17.950Z,2.90
2019-01-10T16:11:19.665Z,2.90
2019-01-10T16:13:21.386Z,2.90
2019-01-10T16:15:23.919Z,2.90
2019-01-10T16:17:25.838Z,2.90
2019-01-10T16:19:27.550Z,2.90
2019-01-10T16:21:29.371Z,2.80
2019-01-10T16:23:31.175Z,2.80
2019-01-10T16:25:33.346Z,2.70
2019-01-10T16:27:35.245Z,2.80
2019-01-10T16:29:37.026Z,2.80
2019-01-10T16:31:38.730Z,2.80
2019-01-10T16:33:40.462Z,2.80
2019-01-10T16:35:42.184Z,2.70
2019-01-10T16:37:44.128Z,2.60
2019-01-10T16:39:45.846Z,2.70
2019-01-10T16:41:47.573Z,2.70
2019-01-10T16:43:49.362Z,2.70
2019-01-10T16:45:51.289Z,2.70
2019-01-10T16:47:53.330Z,2.60
2019-01-10T16:49:55.064Z,2.60
2019-01-10T16:51:56.762Z,2.60
2019-01-10T16:53:58.487Z,2.60
2019-01-10T16:56:00.435Z,2.60
2019-01-10T16:58:02.710Z,2.60
2019-01-10T17:00:06.808Z,2.70
2019-01-10T17:02:08.787Z,2.70
2019-01-10T17:04:10.540Z,2.60
2019-01-10T17:06:12.364Z,2.70
2019-01-10T17:08:14.187Z,2.70
2019-01-10T17:10:16.343Z,2.70
2019-01-10T17:12:18.174Z,2.70
2019-01-10T17:14:20.152Z,2.70
2019-01-10T17:16:22.254Z,2.80
2019-01-10T17:22:51.432Z,2.70
2019-01-10T17:24:53.186Z,2.70
2019-01-10T17:26:54.906Z,2.80
2019-01-10T17:28:56.637Z,2.80
2019-01-10T17:30:58.357Z,2.80
2019-01-10T17:33:01.039Z,2.80
2019-01-10T17:35:05.038Z,2.80
2019-01-10T17:37:06.851Z,2.80
2019-01-10T17:39:08.837Z,2.80
2019-01-10T17:41:10.564Z,2.80
2019-01-10T17:43:12.374Z,2.80
2019-01-10T17:45:16.086Z,2.80
2019-01-10T17:47:17.834Z,2.90
2019-01-10T17:49:19.540Z,2.90
2019-01-10T17:51:21.251Z,2.90
2019-01-10T17:53:23.021Z,2.90
2019-01-10T17:55:24.819Z,2.80
2019-01-10T17:57:26.523Z,2.80
2019-01-10T17:59:28.247Z,2.80
2019-01-10T18:01:45.270Z,2.80
2019-01-10T18:03:47.055Z,2.80
2019-01-10T18:05:48.784Z,2.80
2019-01-10T18:07:50.607Z,2.80
2019-01-10T18:09:52.313Z,2.80
2019-01-10T18:11:54.030Z,2.80
2019-01-10T18:13:55.759Z,2.70
2019-01-10T18:15:57.464Z,2.80
2019-01-10T18:17:59.570Z,2.70
2019-01-10T18:20:01.395Z,2.60
2019-01-10T18:22:03.423Z,2.60
2019-01-10T18:24:05.366Z,2.60
2019-01-10T18:26:07.180Z,2.60
2019-01-10T18:28:08.889Z,2.50
2019-01-10T18:30:13.914Z,2.50
2019-01-10T18:32:16.401Z,2.50
2019-01-10T18:34:18.327Z,2.40
2019-01-10T18:36:20.166Z,2.50
2019-01-10T18:38:21.866Z,2.50
2019-01-10T18:40:23.597Z,2.50
2019-01-10T18:42:25.651Z,2.50
2019-01-10T18:44:27.363Z,2.50
2019-01-10T18:46:29.071Z,2.50
2019-01-10T18:48:31.082Z,2.50
2019-01-10T18:50:32.889Z,2.50
2019-01-10T18:52:34.723Z,2.50
2019-01-10T18:54:36.476Z,2.50
2019-01-10T18:56:38.330Z,2.50
2019-01-10T18:58:40.129Z,2.50
2019-01-10T19:00:41.948Z,2.60
2019-01-10T19:02:43.758Z,2.60
2019-01-10T19:04:46.262Z,2.60
2019-01-10T19:06:48.831Z,2.50
2019-01-10T19:08:50.547Z,2.50
2019-01-10T19:10:52.265Z,2.40
2019-01-10T19:12:59.839Z,2.40
2019-01-10T19:15:01.767Z,2.50
2019-01-10T19:17:03.579Z,2.50
2019-01-10T19:19:06.183Z,2.40
2019-01-10T19:21:07.906Z,2.40
2019-01-10T19:23:09.841Z,2.40
2019-01-10T19:25:12.196Z,2.50
2019-01-10T19:27:13.904Z,2.50
2019-01-10T19:29:15.699Z,2.50
2019-01-10T19:31:17.538Z,2.40
2019-01-10T19:33:19.243Z,2.40
2019-01-10T19:35:21.071Z,2.50
2019-01-10T19:37:22.814Z,2.50
2019-01-10T19:39:24.536Z,2.40
2019-01-10T19:41:26.357Z,2.50
2019-01-10T19:43:28.098Z,2.50
2019-01-10T19:45:30.022Z,2.40
2019-01-10T19:47:31.751Z,2.50
2019-01-10T19:49:33.691Z,2.40
2019-01-10T19:51:35.504Z,2.40
2019-01-10T19:53:37.230Z,2.30
2019-01-10T19:55:38.964Z,2.20
2019-01-10T19:57:40.825Z,2.30
2019-01-10T19:59:42.651Z,2.20
2019-01-10T20:01:44.422Z,2.20
2019-01-10T20:03:46.126Z,2.20
2019-01-10T20:05:47.970Z,2.20
2019-01-10T20:07:50.082Z,2.30
2019-01-10T20:09:51.785Z,2.20
2019-01-10T20:11:53.499Z,2.20
2019-01-10T20:13:55.415Z,2.10
2019-01-10T20:15:57.346Z,2.10
2019-01-10T20:18:02.146Z,2.20
2019-01-10T20:20:09.910Z,2.20
2019-01-10T20:22:11.658Z,2.10
2019-01-10T20:24:13.566Z,2.10
2019-01-10T20:26:15.425Z,2.10
2019-01-10T20:28:17.146Z,2.10
2019-01-10T20:30:19.071Z,2.10
2019-01-10T20:32:20.809Z,2.10
2019-01-10T20:34:22.618Z,2.10
2019-01-10T20:36:24.446Z,2.10
2019-01-10T20:38:26.530Z,2.10
2019-01-10T20:40:28.447Z,2.10
2019-01-10T20:42:30.302Z,2.00
2019-01-10T20:44:32.123Z,2.00
2019-01-10T20:46:33.843Z,2.10
2019-01-10T20:48:35.601Z,2.10
2019-01-10T20:50:37.519Z,2.10
2019-01-10T20:52:39.222Z,2.00
2019-01-10T20:54:40.955Z,2.00
2019-01-10T20:56:42.696Z,2.00
2019-01-10T20:58:44.402Z,1.90
2019-01-10T21:00:46.511Z,2.00
2019-01-10T21:02:49.111Z,2.00
2019-01-10T21:04:51.123Z,2.10
2019-01-10T21:06:52.936Z,2.00
2019-01-10T21:08:54.766Z,2.00
2019-01-10T21:10:56.510Z,2.00
2019-01-10T21:12:58.478Z,2.00
2019-01-10T21:15:00.306Z,2.00
2019-01-10T21:17:02.266Z,2.10
2019-01-10T21:19:04.174Z,2.10
2019-01-10T21:21:06.110Z,2.10
2019-01-10T21:23:08.051Z,2.10
2019-01-10T21:25:10.235Z,2.10
2019-01-10T21:27:12.051Z,2.00
2019-01-10T21:29:23.362Z,1.90
2019-01-10T21:31:25.075Z,1.90
2019-01-10T21:33:26.878Z,1.90
2019-01-10T21:35:28.810Z,1.90
2019-01-10T21:37:30.523Z,1.80
2019-01-10T21:39:32.259Z,1.90
2019-01-10T21:41:33.988Z,1.90
2019-01-10T21:43:35.724Z,1.90
2019-01-10T21:45:37.571Z,2.00
2019-01-10T21:47:39.666Z,2.00
2019-01-10T21:49:41.492Z,1.90
2019-01-10T21:51:43.212Z,1.80
2019-01-10T21:53:45.291Z,1.80
2019-01-10T21:55:46.987Z,1.80
2019-01-10T21:57:49.640Z,1.80
2019-01-10T21:59:51.484Z,1.80
2019-01-10T22:01:53.243Z,1.80
2019-01-10T22:03:54.992Z,1.80
2019-01-10T22:05:56.807Z,1.80
2019-01-10T22:07:58.647Z,1.80
2019-01-10T22:10:00.785Z,1.80
2019-01-10T22:12:02.864Z,1.80
2019-01-10T22:14:04.802Z,1.80
2019-01-10T22:16:06.691Z,1.80
2019-01-10T22:18:08.820Z,1.80
2019-01-10T22:20:12.119Z,1.80
2019-01-10T22:22:13.885Z,1.80
2019-01-10T22:24:15.931Z,1.80
2019-01-10T22:26:17.934Z,1.90
2019-01-10T22:28:19.667Z,1.90
2019-01-10T22:30:22.427Z,1.90
2019-01-10T22:32:24.355Z,1.90
2019-01-10T22:34:26.088Z,1.90
2019-01-10T22:36:27.932Z,2.00
2019-01-10T22:38:29.644Z,1.90
2019-01-10T22:40:31.471Z,1.90
2019-01-10T22:42:33.231Z,1.90
2019-01-10T22:44:34.981Z,1.90
2019-01-10T22:46:36.705Z,1.90
2019-01-10T22:48:38.473Z,1.90
2019-01-10T22:50:40.189Z,2.00
2019-01-10T22:52:42.128Z,2.00
2019-01-10T22:54:43.880Z,2.00
2019-01-10T22:56:45.815Z,2.00
2019-01-10T22:58:47.643Z,1.90
2019-01-10T23:01:08.973Z,1.90
2019-01-10T23:03:10.988Z,1.90
2019-01-10T23:05:12.725Z,2.00
2019-01-10T23:07:20.155Z,2.00
2019-01-10T23:09:22.118Z,2.00
2019-01-10T23:11:24.564Z,2.00
2019-01-10T23:13:26.328Z,2.00
2019-01-10T23:15:30.206Z,2.00
2019-01-10T23:17:49.565Z,2.00
2019-01-10T23:19:51.425Z,2.00
2019-01-10T23:21:53.375Z,2.00
2019-01-10T23:24:03.110Z,2.00
2019-01-10T23:26:05.086Z,2.00
2019-01-10T23:28:07.006Z,2.10
2019-01-10T23:30:09.043Z,2.00
2019-01-10T23:32:15.110Z,2.00
2019-01-10T23:34:17.144Z,2.00
2019-01-10T23:36:18.869Z,2.00
2019-01-10T23:38:21.031Z,2.00
2019-01-10T23:40:22.779Z,2.00
2019-01-10T23:42:24.710Z,2.10
2019-01-10T23:44:26.470Z,2.10
2019-01-10T23:46:28.187Z,2.10
2019-01-10T23:48:29.914Z,2.10
2019-01-10T23:50:32.147Z,2.10
2019-01-10T23:52:34.118Z,2.10
2019-01-10T23:54:35.842Z,2.10
2019-01-10T23:56:37.814Z,2.10
2019-01-10T23:58:39.546Z,2.10
